Airfield :
LOGIN :

Register | Disclaimer

   EN    FR    IT 

 










Legend :    VFR   Marginal VFR   IFR   Intensive IFR   Very Intensive IFR
Visi :
Ceiling :
>= 8 km
>= 3000ft
5 to 8 km
1000 to 3000 ft
1500m to 5 km
500 to 1000 ft
800 to 1500m
200 to 500 ft
< 800m
< 200 ft
Symbols :   Thunderstorms  Fog  Heavy snow  Heavy precipitations  Wind > 20 kt
SIGMETs :     Misc.  Thunderstorms  Icing  Turbulence  Mountain Waves  Volcanic Ashes






- Airport Elevation : 614 ft
- IATA code : CRL


EBCI - Charleroi

CURRENT METAR :
  • 262350Z 21012KT 9999 SCT017 09/07 Q1004 NOSIG

EXPIRED METARs :
  • 262320Z 21012KT 9999 SCT017 09/06 Q1004 NOSIG
  • 262250Z 21011KT 9999 SCT017 BKN039 BKN047 09/07 Q1004 NOSIG
  • 262220Z 21011KT 9999 SCT017 BKN039 BKN047 09/07 Q1004 NOSIG
  • 262150Z 21012KT 9999 FEW017 SCT033 BKN045 09/06 Q1004 NOSIG
  • 262120Z 21012KT 9999 FEW032 09/06 Q1004 NOSIG

TAF TAF EBCI
Valid from the 27 at 00:00 until the 28 at 06:00 UTC


262310Z 2700/2806 20013KT 9999 FEW018 SCT030
PROB30
TEMPO 2700/2704 4000 SHRA BKN014CB
TEMPO 2704/2709 BKN007
BECMG 2716/2718 BKN013
TEMPO 2719/2724 20015G27KT 3500 RADZ BKN007
PROB30 2720/2724 2500 DZRA BKN004
TEMPO 2800/2803 4000 RA SHRA BKN007



MET'MAP, your aeronautical weather chart ! - Copyright ORBIFLY December 2007 - Disclaimer

ORBIFLY MET'MAP TEAM :

Programming & Development : Alexandra Zaïnal
Concept & original design : Baudouin d'Aumeries
Assistance for programming : Marc-Olivier Méhu
Technical & hardware support : Manuel Goepfert

Contact : metmap@orbifly.com




SOURCES & CREDITS :

   NOAA